createdAt,value
2022-10-23T00:01:34.976Z,1.60
2022-10-23T00:04:16.132Z,1.83
2022-10-23T00:06:44.269Z,1.88
2022-10-23T00:09:13.422Z,2.00
2022-10-23T00:11:41.747Z,2.20
2022-10-23T00:14:09.327Z,1.73
2022-10-23T00:16:37.056Z,2.67
2022-10-23T00:19:04.430Z,1.98
2022-10-23T00:21:31.872Z,2.00
2022-10-23T00:23:59.174Z,1.67
2022-10-23T00:26:26.616Z,1.65
2022-10-23T00:28:54.711Z,1.95
2022-10-23T00:31:23.209Z,1.70
2022-10-23T00:33:51.140Z,2.53
2022-10-23T00:36:20.788Z,1.98
2022-10-23T00:38:48.673Z,1.73
2022-10-23T00:41:28.595Z,1.95
2022-10-23T00:44:30.519Z,1.75
2022-10-23T00:46:59.556Z,1.90
2022-10-23T00:49:28.426Z,1.98
2022-10-23T00:52:01.519Z,1.65
2022-10-23T00:54:32.678Z,2.38
2022-10-23T00:57:01.996Z,2.00
2022-10-23T00:59:29.677Z,1.80
2022-10-23T01:01:57.033Z,2.22
2022-10-23T01:04:25.523Z,1.65
2022-10-23T01:06:55.665Z,1.90
2022-10-23T01:09:26.567Z,1.67
2022-10-23T01:12:02.551Z,2.67
2022-10-23T01:14:38.098Z,1.80
2022-10-23T01:17:20.239Z,2.40
2022-10-23T01:20:13.346Z,1.70
2022-10-23T01:22:59.133Z,2.05
2022-10-23T01:25:29.216Z,1.80
2022-10-23T01:28:01.421Z,1.52
2022-10-23T01:30:29.391Z,1.70
2022-10-23T01:33:00.876Z,1.77
2022-10-23T01:35:32.417Z,1.90
2022-10-23T01:38:20.144Z,1.87
2022-10-23T01:41:03.013Z,1.58
2022-10-23T01:43:42.401Z,1.42
2022-10-23T01:46:14.339Z,1.92
2022-10-23T01:48:44.371Z,2.00
2022-10-23T01:51:14.164Z,1.90
2022-10-23T01:53:43.836Z,1.90
2022-10-23T01:56:13.402Z,1.98
2022-10-23T01:58:43.200Z,2.10
2022-10-23T02:01:11.778Z,1.90
2022-10-23T02:03:39.496Z,1.97
2022-10-23T02:06:07.016Z,1.85
2022-10-23T02:08:34.357Z,1.90
2022-10-23T02:11:14.638Z,2.13
2022-10-23T02:14:22.340Z,1.90
2022-10-23T02:16:54.865Z,1.67
2022-10-23T02:19:45.927Z,2.17
2022-10-23T02:22:37.475Z,1.80
2022-10-23T02:25:14.495Z,2.00
2022-10-23T02:27:48.187Z,1.73
2022-10-23T02:30:17.670Z,1.97
2022-10-23T02:32:50.604Z,2.05
2022-10-23T02:35:19.621Z,2.05
2022-10-23T02:37:57.905Z,1.70
2022-10-23T02:40:42.055Z,2.00
2022-10-23T02:43:14.578Z,1.80
2022-10-23T02:45:52.947Z,2.08
2022-10-23T02:48:29.716Z,1.90
2022-10-23T02:51:11.711Z,1.90
2022-10-23T02:53:44.933Z,1.88
2022-10-23T02:56:33.457Z,1.60
2022-10-23T02:59:11.278Z,1.77
2022-10-23T03:02:15.374Z,1.83
2022-10-23T03:04:42.990Z,1.98
2022-10-23T03:07:12.142Z,2.03
2022-10-23T03:09:39.515Z,1.43
2022-10-23T03:12:06.555Z,1.73
2022-10-23T03:14:33.586Z,1.95
2022-10-23T03:17:00.629Z,1.70
2022-10-23T03:19:27.729Z,1.65
2022-10-23T03:21:54.761Z,2.03
2022-10-23T03:24:21.816Z,1.20
2022-10-23T03:26:48.921Z,1.80
2022-10-23T03:29:16.118Z,2.10
2022-10-23T03:31:43.262Z,1.95
2022-10-23T03:34:11.489Z,2.73
2022-10-23T03:36:38.561Z,2.85
2022-10-23T03:39:05.686Z,2.35
2022-10-23T03:41:32.761Z,2.00
2022-10-23T03:44:00.040Z,2.10
2022-10-23T03:46:27.354Z,1.30
2022-10-23T03:48:56.780Z,1.30
2022-10-23T03:51:24.041Z,1.80
2022-10-23T03:53:51.151Z,1.65
2022-10-23T03:56:18.220Z,1.30
2022-10-23T03:58:45.591Z,1.87
2022-10-23T04:01:12.907Z,1.60
2022-10-23T04:03:39.998Z,1.40
2022-10-23T04:06:07.354Z,1.48
2022-10-23T04:08:34.452Z,1.77
2022-10-23T04:11:01.617Z,1.60
2022-10-23T04:13:28.649Z,1.48
2022-10-23T04:15:55.729Z,1.67
2022-10-23T04:18:22.783Z,1.50
2022-10-23T04:20:50.359Z,1.60
2022-10-23T04:23:17.733Z,1.20
2022-10-23T04:25:44.792Z,2.00
2022-10-23T04:28:11.970Z,2.03
2022-10-23T04:30:39.358Z,1.25
2022-10-23T04:33:06.419Z,1.60
2022-10-23T04:35:33.654Z,1.93
2022-10-23T04:38:00.722Z,1.42
2022-10-23T04:40:27.787Z,1.60
2022-10-23T04:42:54.838Z,1.02
2022-10-23T04:45:21.909Z,1.30
2022-10-23T04:47:48.972Z,1.47
2022-10-23T04:50:16.362Z,1.40
2022-10-23T04:52:43.816Z,1.25
2022-10-23T04:55:11.130Z,1.40
2022-10-23T04:57:38.243Z,1.40
2022-10-23T05:00:07.776Z,1.23
2022-10-23T05:02:34.846Z,1.65
2022-10-23T05:05:01.933Z,1.60
2022-10-23T05:07:28.992Z,1.40
2022-10-23T05:09:56.182Z,1.40
2022-10-23T05:12:25.478Z,1.10
2022-10-23T05:14:53.047Z,1.60
2022-10-23T05:17:33.290Z,1.67
2022-10-23T05:20:03.173Z,1.27
2022-10-23T05:22:32.992Z,1.40
2022-10-23T05:25:02.212Z,1.30
2022-10-23T05:27:29.312Z,1.08
2022-10-23T05:29:56.390Z,1.00
2022-10-23T05:32:25.702Z,1.13
2022-10-23T05:34:53.603Z,1.63
2022-10-23T05:37:21.044Z,1.20
2022-10-23T05:39:48.267Z,1.10
2022-10-23T05:42:15.520Z,1.38
2022-10-23T05:44:42.815Z,0.98
2022-10-23T05:47:09.996Z,1.10
2022-10-23T05:49:37.322Z,1.40
2022-10-23T05:52:04.660Z,1.55
2022-10-23T05:54:31.989Z,1.50
2022-10-23T05:56:59.219Z,1.90
2022-10-23T05:59:26.296Z,1.30
2022-10-23T06:01:53.396Z,1.47
2022-10-23T06:04:20.745Z,1.42
2022-10-23T06:06:47.813Z,1.15
2022-10-23T06:09:15.698Z,0.93
2022-10-23T06:11:43.318Z,1.17
2022-10-23T06:14:10.613Z,1.10
2022-10-23T06:16:37.714Z,1.20
2022-10-23T06:19:04.759Z,1.30
2022-10-23T06:21:31.781Z,1.52
2022-10-23T06:23:58.824Z,1.60
2022-10-23T06:26:26.307Z,1.20
2022-10-23T06:28:53.661Z,0.93
2022-10-23T06:31:23.749Z,1.52
2022-10-23T06:33:50.881Z,1.48
2022-10-23T06:36:17.896Z,0.95
2022-10-23T06:38:44.972Z,1.27
2022-10-23T06:41:20.416Z,1.30
2022-10-23T06:43:48.873Z,1.50
2022-10-23T06:46:16.629Z,1.10
2022-10-23T06:48:44.095Z,0.88
2022-10-23T06:51:13.423Z,1.20
2022-10-23T06:53:40.815Z,1.38
2022-10-23T06:56:08.509Z,1.38
2022-10-23T06:58:37.379Z,1.35
2022-10-23T07:01:07.207Z,1.25
2022-10-23T07:03:34.975Z,1.73
2022-10-23T07:06:06.494Z,1.00
2022-10-23T07:08:33.895Z,1.50
2022-10-23T07:11:05.564Z,1.10
2022-10-23T07:13:34.330Z,1.33
2022-10-23T07:16:27.592Z,1.33
2022-10-23T07:18:59.301Z,1.00
2022-10-23T07:21:31.162Z,1.52
2022-10-23T07:23:58.616Z,1.60
2022-10-23T07:26:25.696Z,2.60
2022-10-23T07:28:55.240Z,1.73
2022-10-23T07:31:25.771Z,1.80
2022-10-23T07:33:55.492Z,1.73
2022-10-23T07:36:22.683Z,1.48
2022-10-23T07:38:51.151Z,2.22
2022-10-23T07:41:18.479Z,1.53
2022-10-23T07:43:45.621Z,1.40
2022-10-23T07:46:12.808Z,2.10
2022-10-23T07:48:40.419Z,1.65
2022-10-23T07:51:11.870Z,1.48
2022-10-23T07:53:39.673Z,1.67
2022-10-23T07:56:21.343Z,1.80
2022-10-23T07:58:49.161Z,1.60
2022-10-23T08:01:26.006Z,1.77
2022-10-23T08:03:53.607Z,1.58
2022-10-23T08:06:20.895Z,1.90
2022-10-23T08:08:47.980Z,1.90
2022-10-23T08:11:16.118Z,1.90
2022-10-23T08:13:44.391Z,2.65
2022-10-23T08:16:11.967Z,2.20
2022-10-23T08:18:40.978Z,2.27
2022-10-23T08:21:08.432Z,1.63
2022-10-23T08:23:35.442Z,2.00
2022-10-23T08:26:05.296Z,2.00
2022-10-23T08:28:33.086Z,2.17
2022-10-23T08:31:10.547Z,1.90
2022-10-23T08:33:38.401Z,4.57
2022-10-23T08:36:06.274Z,2.20
2022-10-23T08:38:33.929Z,1.50
2022-10-23T08:41:02.719Z,1.40
2022-10-23T08:43:39.007Z,1.47
2022-10-23T08:46:14.582Z,1.73
2022-10-23T08:48:46.926Z,1.20
2022-10-23T08:51:26.566Z,1.40
2022-10-23T08:54:23.675Z,1.52
2022-10-23T08:56:58.712Z,1.20
2022-10-23T08:59:32.840Z,1.77
2022-10-23T09:02:22.412Z,1.10
2022-10-23T09:04:52.004Z,1.58
2022-10-23T09:07:48.060Z,1.55
2022-10-23T09:10:36.940Z,1.70
2022-10-23T09:13:26.649Z,1.45
2022-10-23T09:16:13.812Z,1.05
2022-10-23T09:18:41.968Z,1.00
2022-10-23T09:21:10.098Z,1.25
2022-10-23T09:23:37.891Z,1.20
2022-10-23T09:26:13.212Z,0.90
2022-10-23T09:28:57.521Z,1.45
2022-10-23T09:31:24.568Z,1.45
2022-10-23T09:34:01.463Z,1.23
2022-10-23T09:36:29.798Z,1.00
2022-10-23T09:38:59.027Z,0.80
2022-10-23T09:41:39.754Z,1.00
2022-10-23T09:44:29.729Z,2.13
2022-10-23T09:47:11.167Z,0.90
2022-10-23T09:49:40.424Z,1.33
2022-10-23T09:52:10.143Z,1.38
2022-10-23T09:54:39.664Z,0.82
2022-10-23T09:57:23.788Z,1.17
2022-10-23T09:59:56.167Z,0.80
2022-10-23T10:02:36.815Z,1.30
2022-10-23T10:05:24.006Z,0.70
2022-10-23T10:08:06.984Z,0.73
2022-10-23T10:10:41.120Z,0.90
2022-10-23T10:13:36.571Z,0.50
2022-10-23T10:16:09.209Z,1.30
2022-10-23T10:18:53.055Z,0.70
2022-10-23T10:21:57.871Z,0.73
2022-10-23T10:25:02.675Z,0.50
2022-10-23T10:28:03.680Z,0.85
2022-10-23T10:30:45.145Z,0.83
2022-10-23T10:33:21.539Z,0.73
2022-10-23T10:36:20.923Z,0.43
2022-10-23T10:38:50.715Z,0.60
2022-10-23T10:41:30.058Z,0.70
2022-10-23T10:44:22.459Z,0.90
2022-10-23T10:46:55.181Z,1.17
2022-10-23T10:49:46.878Z,1.83
2022-10-23T10:52:22.294Z,1.77
2022-10-23T10:55:17.226Z,0.60
2022-10-23T10:57:47.456Z,0.90
2022-10-23T11:00:23.408Z,0.98
2022-10-23T11:02:59.021Z,0.82
2022-10-23T11:05:33.236Z,0.63
2022-10-23T11:08:10.387Z,0.70
2022-10-23T11:10:41.781Z,0.80
2022-10-23T11:13:38.964Z,0.70
2022-10-23T11:16:13.265Z,0.40
2022-10-23T11:18:45.365Z,0.57
2022-10-23T11:21:35.049Z,0.50
2022-10-23T11:24:11.251Z,0.87
2022-10-23T11:26:56.127Z,1.00
2022-10-23T11:29:30.738Z,0.63
2022-10-23T11:32:20.695Z,0.70
2022-10-23T11:35:24.542Z,0.60
2022-10-23T11:38:16.167Z,0.60
2022-10-23T11:43:55.390Z,0.65
2022-10-23T11:46:25.466Z,0.60
2022-10-23T11:48:54.599Z,0.68
2022-10-23T11:51:33.473Z,0.53
2022-10-23T11:54:16.382Z,0.75
2022-10-23T11:57:10.905Z,0.38
2022-10-23T11:59:53.413Z,0.77
2022-10-23T12:02:38.069Z,0.30
2022-10-23T12:05:25.722Z,0.63
2022-10-23T12:07:57.907Z,0.70
2022-10-23T12:10:50.641Z,0.88
2022-10-23T12:13:50.195Z,0.60
2022-10-23T12:16:17.294Z,1.05
2022-10-23T12:19:18.531Z,0.63
2022-10-23T12:21:46.322Z,1.00
2022-10-23T12:24:34.777Z,0.43
2022-10-23T12:27:11.324Z,0.60
2022-10-23T12:30:09.959Z,0.50
2022-10-23T12:32:40.345Z,0.50
2022-10-23T12:35:19.761Z,1.00
2022-10-23T12:38:16.317Z,1.10
2022-10-23T12:40:51.649Z,0.68
2022-10-23T12:43:31.353Z,0.70
2022-10-23T12:46:04.582Z,0.70
2022-10-23T12:48:32.971Z,0.60
2022-10-23T12:51:00.017Z,0.60
2022-10-23T12:53:27.495Z,0.80
2022-10-23T12:56:01.433Z,0.40
2022-10-23T12:58:31.994Z,1.00
2022-10-23T13:01:02.030Z,0.70
2022-10-23T13:03:30.954Z,0.80
2022-10-23T13:05:58.852Z,1.30
2022-10-23T13:08:32.301Z,0.70
2022-10-23T13:10:59.851Z,0.90
2022-10-23T13:13:26.957Z,0.85
2022-10-23T13:15:54.036Z,0.73
2022-10-23T13:18:21.103Z,0.70
2022-10-23T13:20:51.195Z,0.90
2022-10-23T13:23:34.889Z,0.83
2022-10-23T13:26:21.481Z,0.88
2022-10-23T13:28:48.624Z,1.23
2022-10-23T13:31:15.621Z,1.40
2022-10-23T13:33:48.302Z,0.75
2022-10-23T13:36:15.317Z,1.00
2022-10-23T13:38:58.567Z,0.88
2022-10-23T13:41:27.044Z,1.02
2022-10-23T13:43:54.092Z,1.00
2022-10-23T13:46:23.713Z,1.05
2022-10-23T13:48:51.268Z,1.80
2022-10-23T13:51:23.408Z,1.00
2022-10-23T13:53:51.243Z,1.33
2022-10-23T13:56:20.578Z,0.95
2022-10-23T13:58:48.461Z,1.00
2022-10-23T14:01:33.805Z,1.20
2022-10-23T14:04:00.924Z,0.90
2022-10-23T14:06:27.984Z,1.33
2022-10-23T14:08:55.009Z,1.00
2022-10-23T14:11:22.660Z,1.38
2022-10-23T14:13:50.089Z,1.13
2022-10-23T14:16:19.239Z,1.48
2022-10-23T14:18:46.489Z,0.98
2022-10-23T14:21:15.774Z,1.30
2022-10-23T14:23:42.860Z,1.25
2022-10-23T14:26:11.853Z,1.50
2022-10-23T14:28:38.917Z,1.13
2022-10-23T14:31:07.884Z,1.33
2022-10-23T14:33:34.938Z,1.45
2022-10-23T14:36:01.993Z,1.58
2022-10-23T14:38:29.453Z,1.10
2022-10-23T14:40:56.537Z,1.13
2022-10-23T14:43:24.319Z,1.10
2022-10-23T14:45:51.666Z,1.23
2022-10-23T14:48:18.968Z,1.40
2022-10-23T14:50:48.396Z,1.37
2022-10-23T14:53:15.835Z,1.52
2022-10-23T14:55:42.917Z,1.50
2022-10-23T14:58:09.994Z,1.35
2022-10-23T15:00:37.051Z,1.50
2022-10-23T15:03:04.128Z,1.97
2022-10-23T15:05:31.325Z,1.40
2022-10-23T15:07:59.087Z,1.67
2022-10-23T15:10:26.158Z,1.63
2022-10-23T15:12:53.208Z,1.38
2022-10-23T15:15:20.277Z,1.77
2022-10-23T15:17:47.327Z,1.67
2022-10-23T15:20:14.450Z,1.50
2022-10-23T15:22:41.645Z,1.33
2022-10-23T15:25:09.181Z,1.30
2022-10-23T15:27:37.650Z,1.40
2022-10-23T15:30:05.082Z,1.42
2022-10-23T15:32:32.159Z,1.50
2022-10-23T15:35:00.074Z,1.55
2022-10-23T15:37:27.192Z,1.73
2022-10-23T15:39:57.194Z,1.90
2022-10-23T15:42:26.772Z,1.60
2022-10-23T15:44:54.056Z,1.77
2022-10-23T15:47:21.177Z,1.33
2022-10-23T15:49:48.398Z,1.75
2022-10-23T15:52:15.516Z,1.20
2022-10-23T15:54:42.587Z,1.45
2022-10-23T15:57:09.984Z,1.52
2022-10-23T15:59:37.045Z,1.30
2022-10-23T16:02:04.174Z,1.38
2022-10-23T16:04:31.422Z,1.60
2022-10-23T16:06:58.497Z,1.70
2022-10-23T16:09:25.701Z,1.50
2022-10-23T16:11:52.774Z,1.40
2022-10-23T16:14:20.009Z,1.58
2022-10-23T16:16:47.050Z,1.30
2022-10-23T16:19:14.267Z,2.00
2022-10-23T16:21:41.639Z,2.55
2022-10-23T16:24:09.016Z,1.85
2022-10-23T16:26:36.799Z,1.85
2022-10-23T16:29:06.519Z,2.63
2022-10-23T16:31:33.945Z,1.42
2022-10-23T16:34:01.549Z,1.40
2022-10-23T16:36:29.454Z,1.55
2022-10-23T16:38:56.546Z,1.77
2022-10-23T16:41:23.923Z,1.40
2022-10-23T16:43:51.098Z,1.60
2022-10-23T16:46:19.854Z,1.80
2022-10-23T16:48:47.641Z,1.88
2022-10-23T16:51:17.145Z,1.42
2022-10-23T16:53:45.042Z,1.70
2022-10-23T16:56:15.271Z,1.70
2022-10-23T16:58:42.988Z,2.15
2022-10-23T17:01:19.872Z,1.48
2022-10-23T17:03:49.142Z,1.88
2022-10-23T17:06:20.667Z,1.43
2022-10-23T17:08:48.077Z,1.30
2022-10-23T17:11:21.355Z,1.40
2022-10-23T17:13:55.169Z,1.40
2022-10-23T17:16:35.339Z,1.70
2022-10-23T17:19:08.353Z,2.10
2022-10-23T17:21:40.217Z,2.25
2022-10-23T17:24:08.069Z,2.05
2022-10-23T17:26:35.664Z,1.83
2022-10-23T17:29:05.824Z,1.40
2022-10-23T17:31:34.824Z,1.20
2022-10-23T17:34:04.902Z,1.30
2022-10-23T17:36:34.943Z,1.40
2022-10-23T17:39:04.623Z,1.55
2022-10-23T17:41:32.148Z,1.20
2022-10-23T17:43:59.885Z,1.00
2022-10-23T17:46:27.615Z,1.45
2022-10-23T17:48:57.688Z,1.10
2022-10-23T17:51:27.342Z,1.15
2022-10-23T17:53:56.104Z,1.10
2022-10-23T17:56:27.164Z,1.40
2022-10-23T17:58:56.586Z,1.30
2022-10-23T18:01:25.309Z,1.73
2022-10-23T18:03:53.448Z,1.45
2022-10-23T18:06:25.846Z,1.00
2022-10-23T18:08:56.488Z,1.60
2022-10-23T18:11:30.024Z,1.38
2022-10-23T18:16:30.510Z,1.30
2022-10-23T18:18:59.774Z,1.40
2022-10-23T18:21:26.911Z,1.47
2022-10-23T18:23:54.232Z,1.45
2022-10-23T18:26:26.504Z,1.55
2022-10-23T18:28:59.204Z,1.50
2022-10-23T18:31:29.640Z,1.60
2022-10-23T18:33:58.468Z,1.30
2022-10-23T18:36:27.923Z,1.85
2022-10-23T18:41:28.081Z,1.27
2022-10-23T18:43:55.149Z,1.27
2022-10-23T18:46:22.328Z,1.27
2022-10-23T18:48:52.680Z,1.40
2022-10-23T18:51:28.445Z,1.50
2022-10-23T18:53:55.915Z,1.40
2022-10-23T18:56:26.096Z,1.40
2022-10-23T19:01:31.044Z,1.10
2022-10-23T19:03:59.487Z,0.90
2022-10-23T19:06:27.667Z,1.42
2022-10-23T19:08:55.740Z,1.10
2022-10-23T19:11:24.009Z,1.27
2022-10-23T19:13:51.117Z,1.27
2022-10-23T19:16:28.076Z,1.17
2022-10-23T19:18:59.576Z,1.40
2022-10-23T19:21:31.474Z,1.20
2022-10-23T19:24:02.311Z,1.07
2022-10-23T19:26:30.826Z,1.52
2022-10-23T19:28:58.117Z,1.30
2022-10-23T19:31:28.065Z,1.15
2022-10-23T19:33:55.137Z,1.73
2022-10-23T19:36:23.444Z,1.20
2022-10-23T19:38:51.109Z,1.60
2022-10-23T19:41:18.889Z,1.30
2022-10-23T19:43:46.142Z,1.63
2022-10-23T19:46:13.214Z,1.27
2022-10-23T19:48:44.432Z,1.43
2022-10-23T19:51:15.349Z,1.88
2022-10-23T19:53:42.884Z,1.27
2022-10-23T19:56:11.755Z,1.20
2022-10-23T19:58:39.094Z,1.40
2022-10-23T20:01:07.978Z,1.67
2022-10-23T20:03:35.088Z,1.80
2022-10-23T20:06:02.199Z,1.90
2022-10-23T20:08:32.682Z,1.50
2022-10-23T20:11:02.113Z,1.17
2022-10-23T20:13:29.176Z,1.60
2022-10-23T20:15:56.365Z,1.60
2022-10-23T20:18:23.470Z,1.25
2022-10-23T20:20:50.510Z,1.10
2022-10-23T20:23:17.617Z,1.58
2022-10-23T20:25:44.708Z,1.60
2022-10-23T20:28:14.426Z,1.13
2022-10-23T20:30:44.011Z,1.45
2022-10-23T20:33:11.673Z,1.33
2022-10-23T20:35:43.005Z,1.15
2022-10-23T20:38:10.184Z,1.87
2022-10-23T20:40:37.569Z,1.77
2022-10-23T20:43:04.768Z,1.52
2022-10-23T20:45:32.003Z,1.50
2022-10-23T20:47:59.088Z,1.75
2022-10-23T20:50:26.139Z,1.40
2022-10-23T20:52:53.219Z,1.42
2022-10-23T20:55:20.297Z,1.58
2022-10-23T20:57:47.564Z,1.52
2022-10-23T21:00:15.593Z,2.30
2022-10-23T21:02:45.778Z,1.90
2022-10-23T21:05:14.354Z,1.65
2022-10-23T21:07:41.381Z,1.77
2022-10-23T21:10:08.712Z,1.73
2022-10-23T21:12:35.772Z,1.60
2022-10-23T21:15:02.847Z,1.67
2022-10-23T21:17:35.213Z,1.98
2022-10-23T21:20:02.769Z,1.67
2022-10-23T21:22:30.009Z,1.88
2022-10-23T21:24:58.407Z,1.70
2022-10-23T21:27:25.886Z,1.87
2022-10-23T21:29:52.969Z,2.05
2022-10-23T21:32:20.831Z,1.88
2022-10-23T21:34:47.956Z,2.25
2022-10-23T21:37:15.402Z,2.15
2022-10-23T21:39:43.470Z,2.33
2022-10-23T21:42:12.125Z,1.98
2022-10-23T21:44:39.464Z,1.88
2022-10-23T21:47:07.011Z,2.22
2022-10-23T21:49:34.113Z,1.98
2022-10-23T21:52:01.179Z,2.40
2022-10-23T21:54:28.276Z,3.58
2022-10-23T21:56:55.418Z,2.10
2022-10-23T21:59:28.896Z,1.95
2022-10-23T22:01:58.846Z,2.10
2022-10-23T22:04:26.083Z,2.20
2022-10-23T22:06:53.591Z,1.80
2022-10-23T22:09:21.523Z,2.28
2022-10-23T22:11:50.161Z,1.95
2022-10-23T22:14:17.498Z,2.28
2022-10-23T22:16:44.606Z,2.30
2022-10-23T22:19:13.486Z,2.50
2022-10-23T22:21:41.166Z,2.33
2022-10-23T22:24:09.081Z,1.95
2022-10-23T22:26:38.842Z,2.53
2022-10-23T22:29:08.720Z,2.70
2022-10-23T22:31:36.373Z,2.40
2022-10-23T22:34:18.717Z,2.67
2022-10-23T22:36:56.157Z,2.30
2022-10-23T22:39:23.418Z,2.38
2022-10-23T22:41:50.718Z,2.30
2022-10-23T22:44:18.490Z,1.80
2022-10-23T22:46:46.499Z,2.03
2022-10-23T22:49:13.584Z,1.90
2022-10-23T22:51:40.882Z,2.20
2022-10-23T22:54:08.021Z,2.07
2022-10-23T22:56:35.511Z,2.00
2022-10-23T22:59:03.310Z,1.88
2022-10-23T23:01:45.721Z,1.70
2022-10-23T23:04:36.874Z,2.13
2022-10-23T23:07:09.646Z,2.03
2022-10-23T23:09:39.023Z,1.73
2022-10-23T23:12:08.647Z,2.13
2022-10-23T23:14:36.641Z,1.73
2022-10-23T23:17:05.545Z,1.90
2022-10-23T23:19:32.688Z,1.90
2022-10-23T23:22:00.350Z,1.80
2022-10-23T23:24:27.578Z,2.55
2022-10-23T23:26:54.656Z,2.08
2022-10-23T23:29:21.875Z,1.55
2022-10-23T23:31:48.936Z,1.97
2022-10-23T23:34:16.002Z,1.40
2022-10-23T23:36:43.119Z,1.58
2022-10-23T23:39:10.346Z,1.40
2022-10-23T23:41:37.630Z,1.00
2022-10-23T23:44:05.337Z,1.50
2022-10-23T23:46:32.847Z,1.10
2022-10-23T23:49:00.018Z,1.20
2022-10-23T23:51:27.151Z,1.23
2022-10-23T23:53:54.377Z,1.20
2022-10-23T23:56:21.960Z,1.63
2022-10-23T23:58:50.923Z,1.40
